createdAt,value
2017-09-10T00:00:58.976Z,14.51
2017-09-10T00:01:58.729Z,14.44
2017-09-10T00:02:59.174Z,14.51
2017-09-10T00:03:59.077Z,14.44
2017-09-10T00:04:59.183Z,14.48
2017-09-10T00:05:59.594Z,14.46
2017-09-10T00:06:59.676Z,14.45
2017-09-10T00:08:00.432Z,14.39
2017-09-10T00:09:00.804Z,14.41
2017-09-10T00:10:00.197Z,14.41
2017-09-10T00:11:01.188Z,14.3
2017-09-10T00:12:00.922Z,14.36
2017-09-10T00:13:00.974Z,14.31
2017-09-10T00:14:01.300Z,14.31
2017-09-10T00:15:01.018Z,14.36
2017-09-10T00:16:01.705Z,14.38
2017-09-10T00:17:01.448Z,14.38
2017-09-10T00:18:01.872Z,14.34
2017-09-10T00:19:01.268Z,14.28
2017-09-10T00:20:02.026Z,14.38
2017-09-10T00:21:02.020Z,14.36
2017-09-10T00:22:02.376Z,14.36
2017-09-10T00:23:02.747Z,14.34
2017-09-10T00:24:02.135Z,14.36
2017-09-10T00:25:02.850Z,14.44
2017-09-10T00:26:02.247Z,14.36
2017-09-10T00:27:02.320Z,14.46
2017-09-10T00:28:02.334Z,14.41
2017-09-10T00:29:02.748Z,14.45
2017-09-10T00:30:02.828Z,14.39
2017-09-10T00:31:02.849Z,14.45
2017-09-10T00:32:03.870Z,14.44
2017-09-10T00:33:03.975Z,14.45
2017-09-10T00:34:04.584Z,14.39
2017-09-10T00:35:04.331Z,14.46
2017-09-10T00:36:04.453Z,14.44
2017-09-10T00:37:04.789Z,14.42
2017-09-10T00:38:04.584Z,14.36
2017-09-10T00:39:04.644Z,14.42
2017-09-10T00:40:05.316Z,14.41
2017-09-10T00:41:05.052Z,14.44
2017-09-10T00:42:05.406Z,14.48
2017-09-10T00:43:06.557Z,14.49
2017-09-10T00:44:06.467Z,14.45
2017-09-10T00:45:06.909Z,14.45
2017-09-10T00:46:06.563Z,14.42
2017-09-10T00:47:06.282Z,14.42
2017-09-10T00:48:06.378Z,14.48
2017-09-10T00:49:06.689Z,14.42
2017-09-10T00:50:06.803Z,14.51
2017-09-10T00:51:07.074Z,14.44
2017-09-10T00:52:07.152Z,14.46
2017-09-10T00:53:06.821Z,14.44
2017-09-10T00:54:07.596Z,14.48
2017-09-10T00:55:07.366Z,14.48
2017-09-10T00:56:07.653Z,14.44
2017-09-10T00:57:07.732Z,14.45
2017-09-10T00:58:07.489Z,14.42
2017-09-10T00:59:07.832Z,14.46
2017-09-10T01:00:08.160Z,14.42
2017-09-10T01:01:08.171Z,14.49
2017-09-10T01:02:08.985Z,14.42
2017-09-10T01:03:09.328Z,14.45
2017-09-10T01:04:08.618Z,14.46
2017-09-10T01:05:08.281Z,14.45
2017-09-10T01:06:08.981Z,14.44
2017-09-10T01:07:09.405Z,14.39
2017-09-10T01:08:09.093Z,14.36
2017-09-10T01:09:09.118Z,14.34
2017-09-10T01:10:09.356Z,14.38
2017-09-10T01:11:09.609Z,14.38
2017-09-10T01:12:09.619Z,14.34
2017-09-10T01:13:10.007Z,14.33
2017-09-10T01:14:09.717Z,14.33
2017-09-10T01:15:10.609Z,14.28
2017-09-10T01:16:10.380Z,14.28
2017-09-10T01:17:11.083Z,14.34
2017-09-10T01:18:11.459Z,14.33
2017-09-10T01:19:11.515Z,14.3
2017-09-10T01:20:11.875Z,14.27
2017-09-10T01:21:11.925Z,14.38
2017-09-10T01:22:12.282Z,14.3
2017-09-10T01:23:12.282Z,14.31
2017-09-10T01:24:11.682Z,14.31
2017-09-10T01:25:12.113Z,14.24
2017-09-10T01:26:12.382Z,14.3
2017-09-10T01:27:12.436Z,14.28
2017-09-10T01:28:12.189Z,14.3
2017-09-10T01:29:12.855Z,14.31
2017-09-10T01:30:12.855Z,14.3
2017-09-10T01:31:12.927Z,14.28
2017-09-10T01:32:12.645Z,14.33
2017-09-10T01:33:12.990Z,14.34
2017-09-10T01:34:13.019Z,14.3
2017-09-10T01:35:12.838Z,14.31
2017-09-10T01:36:12.799Z,14.28
2017-09-10T01:37:13.480Z,14.28
2017-09-10T01:38:13.526Z,14.3
2017-09-10T01:39:13.238Z,14.31
2017-09-10T01:40:13.648Z,14.27
2017-09-10T01:41:13.579Z,14.2
2017-09-10T01:42:13.304Z,14.26
2017-09-10T01:43:14.015Z,14.24
2017-09-10T01:44:13.715Z,14.24
2017-09-10T01:45:14.080Z,14.26
2017-09-10T01:46:13.753Z,14.21
2017-09-10T01:47:14.122Z,14.24
2017-09-10T01:48:13.861Z,14.21
2017-09-10T01:49:14.228Z,14.23
2017-09-10T01:50:13.963Z,14.23
2017-09-10T01:51:14.124Z,14.26
2017-09-10T01:52:14.493Z,14.24
2017-09-10T01:53:13.941Z,14.23
2017-09-10T01:54:14.010Z,14.24
2017-09-10T01:55:14.364Z,14.2
2017-09-10T01:56:15.154Z,14.16
2017-09-10T01:57:15.181Z,14.16
2017-09-10T01:58:15.191Z,14.13
2017-09-10T01:59:14.921Z,14.12
2017-09-10T02:00:15.237Z,14.02
2017-09-10T02:01:14.981Z,14.06
2017-09-10T02:02:15.323Z,14.06
2017-09-10T02:03:14.778Z,13.99
2017-09-10T02:04:15.392Z,14.05
2017-09-10T02:05:15.415Z,14.06
2017-09-10T02:06:15.423Z,14.05
2017-09-10T02:07:15.154Z,13.99
2017-09-10T02:08:15.514Z,13.99
2017-09-10T02:09:15.217Z,13.99
2017-09-10T02:10:15.225Z,13.97
2017-09-10T02:11:15.318Z,14.06
2017-09-10T02:12:15.621Z,13.93
2017-09-10T02:13:15.690Z,14.05
2017-09-10T02:14:15.452Z,14.03
2017-09-10T02:15:15.517Z,13.95
2017-09-10T02:16:15.877Z,14.01
2017-09-10T02:17:15.586Z,13.97
2017-09-10T02:18:16.287Z,13.97
2017-09-10T02:19:16.386Z,13.9
2017-09-10T02:20:16.816Z,13.95
2017-09-10T02:21:16.884Z,13.93
2017-09-10T02:22:16.901Z,13.93
2017-09-10T02:23:16.909Z,13.95
2017-09-10T02:24:17.315Z,13.86
2017-09-10T02:25:17.301Z,13.94
2017-09-10T02:26:17.352Z,13.97
2017-09-10T02:27:17.391Z,13.9
2017-09-10T02:28:16.806Z,13.93
2017-09-10T02:29:17.506Z,13.86
2017-09-10T02:30:17.548Z,13.87
2017-09-10T02:31:17.278Z,13.87
2017-09-10T02:32:17.287Z,13.93
2017-09-10T02:33:17.035Z,13.91
2017-09-10T02:34:17.730Z,13.87
2017-09-10T02:35:17.788Z,13.91
2017-09-10T02:36:17.805Z,13.91
2017-09-10T02:37:17.817Z,13.94
2017-09-10T02:38:17.873Z,13.93
2017-09-10T02:39:17.580Z,13.91
2017-09-10T02:40:18.248Z,13.91
2017-09-10T02:41:18.618Z,13.93
2017-09-10T02:42:18.611Z,13.86
2017-09-10T02:43:18.323Z,13.91
2017-09-10T02:44:18.987Z,13.93
2017-09-10T02:45:18.993Z,13.87
2017-09-10T02:46:18.742Z,13.86
2017-09-10T02:47:19.088Z,13.91
2017-09-10T02:48:19.439Z,13.83
2017-09-10T02:49:19.510Z,13.88
2017-09-10T02:50:19.879Z,13.87
2017-09-10T02:51:19.909Z,13.81
2017-09-10T02:52:20.588Z,13.84
2017-09-10T02:53:20.291Z,13.83
2017-09-10T02:54:20.688Z,13.84
2017-09-10T02:55:20.783Z,13.83
2017-09-10T02:56:20.821Z,13.79
2017-09-10T02:57:20.806Z,13.83
2017-09-10T02:58:21.179Z,13.84
2017-09-10T02:59:21.219Z,13.78
2017-09-10T03:00:20.935Z,13.87
2017-09-10T03:01:20.644Z,13.87
2017-09-10T03:02:21.067Z,13.86
2017-09-10T03:03:21.437Z,13.93
2017-09-10T03:04:21.389Z,13.88
2017-09-10T03:05:21.462Z,13.83
2017-09-10T03:06:21.163Z,13.86
2017-09-10T03:07:21.192Z,13.83
2017-09-10T03:08:21.575Z,13.84
2017-09-10T03:09:21.907Z,13.86
2017-09-10T03:10:22.007Z,13.76
2017-09-10T03:11:22.017Z,13.81
2017-09-10T03:12:22.404Z,13.66
2017-09-10T03:13:22.105Z,13.7
2017-09-10T03:14:22.784Z,13.72
2017-09-10T03:15:22.890Z,13.79
2017-09-10T03:16:22.479Z,13.72
2017-09-10T03:17:22.852Z,13.79
2017-09-10T03:18:22.287Z,13.73
2017-09-10T03:19:22.948Z,13.72
2017-09-10T03:20:22.486Z,13.68
2017-09-10T03:21:22.732Z,13.69
2017-09-10T03:22:23.025Z,13.65
2017-09-10T03:23:23.087Z,13.66
2017-09-10T03:24:22.471Z,13.68
2017-09-10T03:25:23.114Z,13.62
2017-09-10T03:26:23.486Z,13.63
2017-09-10T03:27:23.528Z,13.68
2017-09-10T03:28:23.588Z,13.58
2017-09-10T03:29:23.327Z,13.58
2017-09-10T03:30:24.322Z,13.54
2017-09-10T03:31:24.018Z,13.65
2017-09-10T03:32:24.391Z,13.66
2017-09-10T03:33:24.494Z,13.54
2017-09-10T03:34:24.497Z,13.57
2017-09-10T03:35:24.250Z,13.53
2017-09-10T03:36:24.652Z,13.51
2017-09-10T03:37:25.019Z,13.54
2017-09-10T03:38:24.718Z,13.54
2017-09-10T03:39:25.051Z,13.53
2017-09-10T03:40:25.064Z,13.53
2017-09-10T03:41:25.099Z,13.55
2017-09-10T03:42:25.123Z,13.51
2017-09-10T03:43:24.525Z,13.48
2017-09-10T03:44:25.593Z,13.53
2017-09-10T03:45:25.263Z,13.47
2017-09-10T03:46:25.328Z,13.47
2017-09-10T03:47:25.365Z,13.48
2017-09-10T03:48:25.727Z,13.48
2017-09-10T03:49:25.729Z,13.5
2017-09-10T03:50:25.763Z,13.42
2017-09-10T03:51:26.157Z,13.53
2017-09-10T03:52:26.190Z,13.48
2017-09-10T03:53:26.259Z,13.47
2017-09-10T03:54:25.946Z,13.44
2017-09-10T03:55:26.300Z,13.44
2017-09-10T03:56:26.019Z,13.45
2017-09-10T03:57:26.064Z,13.44
2017-09-10T03:58:25.842Z,13.5
2017-09-10T03:59:26.493Z,13.36
2017-09-10T04:00:26.522Z,13.35
2017-09-10T04:01:26.962Z,13.36
2017-09-10T04:02:27.011Z,13.35
2017-09-10T04:03:27.341Z,13.35
2017-09-10T04:04:27.373Z,13.36
2017-09-10T04:05:26.903Z,13.36
2017-09-10T04:06:27.444Z,13.35
2017-09-10T04:07:26.821Z,13.36
2017-09-10T04:08:27.882Z,13.35
2017-09-10T04:09:27.906Z,13.36
2017-09-10T04:10:27.939Z,13.36
2017-09-10T04:11:27.977Z,13.35
2017-09-10T04:12:28.004Z,13.32
2017-09-10T04:13:28.039Z,13.47
2017-09-10T04:14:28.442Z,13.4
2017-09-10T04:15:28.858Z,13.32
2017-09-10T04:16:28.890Z,13.32
2017-09-10T04:17:28.961Z,13.36
2017-09-10T04:18:29.008Z,13.35
2017-09-10T04:19:29.024Z,13.37
2017-09-10T04:20:29.055Z,13.35
2017-09-10T04:21:29.416Z,13.35
2017-09-10T04:22:29.444Z,13.24
2017-09-10T04:23:28.837Z,13.32
2017-09-10T04:24:29.635Z,13.27
2017-09-10T04:25:29.620Z,13.27
2017-09-10T04:26:29.653Z,13.24
2017-09-10T04:27:29.686Z,13.28
2017-09-10T04:28:29.403Z,13.37
2017-09-10T04:29:30.110Z,13.25
2017-09-10T04:30:30.158Z,13.35
2017-09-10T04:31:30.181Z,13.25
2017-09-10T04:32:30.622Z,13.29
2017-09-10T04:33:30.611Z,13.2
2017-09-10T04:34:30.330Z,13.17
2017-09-10T04:35:30.357Z,13.21
2017-09-10T04:36:30.727Z,13.24
2017-09-10T04:37:30.743Z,13.2
2017-09-10T04:38:30.449Z,13.2
2017-09-10T04:39:30.816Z,13.21
2017-09-10T04:40:30.522Z,13.19
2017-09-10T04:41:30.869Z,13.27
2017-09-10T04:42:30.902Z,13.16
2017-09-10T04:43:30.604Z,13.25
2017-09-10T04:44:30.967Z,13.16
2017-09-10T04:45:30.998Z,13.24
2017-09-10T04:46:31.118Z,13.27
2017-09-10T04:47:31.132Z,13.24
2017-09-10T04:48:31.232Z,13.17
2017-09-10T04:49:31.250Z,13.31
2017-09-10T04:50:31.278Z,13.27
2017-09-10T04:51:31.320Z,13.39
2017-09-10T04:52:31.438Z,13.35
2017-09-10T04:53:31.458Z,13.35
2017-09-10T04:54:31.864Z,13.32
2017-09-10T04:55:31.897Z,13.36
2017-09-10T04:56:32.308Z,13.36
2017-09-10T04:57:32.330Z,13.47
2017-09-10T04:58:32.028Z,13.5
2017-09-10T04:59:32.689Z,13.47
2017-09-10T05:00:32.432Z,13.54
2017-09-10T05:01:32.547Z,13.55
2017-09-10T05:02:32.565Z,13.5
2017-09-10T05:03:32.604Z,13.51
2017-09-10T05:04:33.349Z,13.53
2017-09-10T05:05:33.118Z,13.48
2017-09-10T05:06:33.860Z,13.51
2017-09-10T05:07:33.576Z,13.62
2017-09-10T05:08:34.302Z,13.68
2017-09-10T05:09:34.328Z,13.66
2017-09-10T05:10:34.049Z,13.65
2017-09-10T05:11:34.391Z,13.65
2017-09-10T05:12:34.114Z,13.57
2017-09-10T05:13:34.453Z,13.58
2017-09-10T05:14:34.485Z,13.66
2017-09-10T05:15:34.514Z,13.69
2017-09-10T05:16:34.579Z,13.72
2017-09-10T05:17:34.584Z,13.7
2017-09-10T05:18:34.673Z,13.78
2017-09-10T05:19:35.049Z,13.81
2017-09-10T05:20:35.112Z,13.84
2017-09-10T05:21:35.444Z,13.81
2017-09-10T05:22:35.474Z,13.83
2017-09-10T05:23:35.521Z,13.88
2017-09-10T05:24:35.555Z,13.88
2017-09-10T05:25:35.570Z,13.95
2017-09-10T05:26:35.273Z,13.9
2017-09-10T05:27:35.692Z,13.94
2017-09-10T05:28:35.081Z,14.01
2017-09-10T05:29:35.819Z,13.99
2017-09-10T05:30:35.856Z,14.06
2017-09-10T05:31:36.602Z,14.11
2017-09-10T05:32:36.318Z,14.2
2017-09-10T05:33:36.334Z,14.28
2017-09-10T05:34:36.371Z,14.31
2017-09-10T05:35:37.117Z,14.44
2017-09-10T05:36:37.143Z,14.56
2017-09-10T05:37:37.176Z,14.64
2017-09-10T05:38:37.204Z,14.64
2017-09-10T05:39:37.248Z,14.67
2017-09-10T05:40:36.955Z,14.86
2017-09-10T05:41:36.969Z,15
2017-09-10T05:42:37.346Z,15.1
2017-09-10T05:43:37.371Z,15.1
2017-09-10T05:44:37.090Z,15.23
2017-09-10T05:45:37.516Z,15.3
2017-09-10T05:46:37.630Z,15.3
2017-09-10T05:47:38.372Z,15.31
2017-09-10T05:48:38.395Z,15.41
2017-09-10T05:49:38.119Z,15.41
2017-09-10T05:50:38.152Z,15.51
2017-09-10T05:51:38.492Z,15.47
2017-09-10T05:52:38.536Z,15.44
2017-09-10T05:53:38.234Z,15.49
2017-09-10T05:54:38.278Z,15.58
2017-09-10T05:55:38.677Z,15.49
2017-09-10T05:56:38.707Z,15.52
2017-09-10T05:57:38.750Z,15.52
2017-09-10T05:58:38.134Z,15.58
2017-09-10T05:59:38.859Z,15.52
2017-09-10T06:00:39.260Z,15.44
2017-09-10T06:01:39.402Z,15.47
2017-09-10T06:02:40.231Z,15.4
2017-09-10T06:03:40.143Z,15.44
2017-09-10T06:04:40.246Z,15.44
2017-09-10T06:05:40.276Z,15.43
2017-09-10T06:06:40.316Z,15.35
2017-09-10T06:07:40.345Z,15.37
2017-09-10T06:08:40.380Z,15.26
2017-09-10T06:09:40.088Z,15.25
2017-09-10T06:10:40.526Z,15.22
2017-09-10T06:11:41.250Z,15.23
2017-09-10T06:12:41.280Z,15.18
2017-09-10T06:13:40.975Z,15.15
2017-09-10T06:14:41.724Z,15.08
2017-09-10T06:15:41.434Z,15.07
2017-09-10T06:16:42.156Z,15.08
2017-09-10T06:17:41.877Z,15.13
2017-09-10T06:18:42.230Z,15.16
2017-09-10T06:19:42.259Z,15.13
2017-09-10T06:20:42.293Z,15.22
2017-09-10T06:21:42.009Z,15.26
2017-09-10T06:22:42.360Z,15.25
2017-09-10T06:23:42.075Z,15.35
2017-09-10T06:24:42.169Z,15.31
2017-09-10T06:25:42.226Z,15.43
2017-09-10T06:26:42.947Z,15.44
2017-09-10T06:27:42.974Z,15.49
2017-09-10T06:28:43.011Z,15.51
2017-09-10T06:29:43.045Z,15.55
2017-09-10T06:30:42.845Z,15.45
2017-09-10T06:31:43.599Z,15.55
2017-09-10T06:32:43.640Z,15.56
2017-09-10T06:33:43.666Z,15.6
2017-09-10T06:34:43.372Z,15.59
2017-09-10T06:35:43.733Z,15.73
2017-09-10T06:36:43.436Z,15.7
2017-09-10T06:37:43.800Z,15.71
2017-09-10T06:38:43.839Z,15.73
2017-09-10T06:39:43.535Z,15.8
2017-09-10T06:40:43.939Z,15.86
2017-09-10T06:41:44.725Z,15.95
2017-09-10T06:42:44.820Z,16.07
2017-09-10T06:43:44.542Z,16.27
2017-09-10T06:44:44.640Z,16.44
2017-09-10T06:45:45.053Z,16.65
2017-09-10T06:46:45.807Z,16.82
2017-09-10T06:47:45.898Z,17.05
2017-09-10T06:48:45.974Z,17.24
2017-09-10T06:49:46.405Z,17.28
2017-09-10T06:50:46.743Z,17.38
2017-09-10T06:51:47.105Z,17.39
2017-09-10T06:52:47.135Z,17.46
2017-09-10T06:53:46.841Z,17.55
2017-09-10T06:54:47.206Z,17.58
2017-09-10T06:55:47.250Z,17.6
2017-09-10T06:56:47.280Z,17.58
2017-09-10T06:57:46.979Z,17.66
2017-09-10T06:58:47.729Z,17.63
2017-09-10T06:59:47.446Z,17.69
2017-09-10T07:00:47.794Z,17.58
2017-09-10T07:01:47.823Z,17.71
2017-09-10T07:02:47.860Z,17.73
2017-09-10T07:03:47.885Z,17.83
2017-09-10T07:04:47.589Z,17.83
2017-09-10T07:05:47.961Z,17.94
2017-09-10T07:06:47.990Z,18.1
2017-09-10T07:07:48.035Z,18.27
2017-09-10T07:08:47.753Z,18.51
2017-09-10T07:09:48.094Z,18.65
2017-09-10T07:10:47.798Z,18.78
2017-09-10T07:11:48.543Z,18.89
2017-09-10T07:12:48.567Z,18.99
2017-09-10T07:13:48.663Z,19.12
2017-09-10T07:14:48.380Z,19
2017-09-10T07:15:48.817Z,18.99
2017-09-10T07:16:48.521Z,19.12
2017-09-10T07:17:49.253Z,19.13
2017-09-10T07:18:49.291Z,19.07
2017-09-10T07:19:49.315Z,19.17
2017-09-10T07:20:49.382Z,19.25
2017-09-10T07:21:49.383Z,19.43
2017-09-10T07:22:49.103Z,19.68
2017-09-10T07:23:49.453Z,19.86
2017-09-10T07:24:49.179Z,20.08
2017-09-10T07:25:49.940Z,20.3
2017-09-10T07:26:49.974Z,20.63
2017-09-10T07:27:50.004Z,20.79
2017-09-10T07:28:50.410Z,21.08
2017-09-10T07:29:50.144Z,21.3
2017-09-10T07:30:50.887Z,21.25
2017-09-10T07:31:50.905Z,21.34
2017-09-10T07:32:50.615Z,21.4
2017-09-10T07:33:50.652Z,21.31
2017-09-10T07:34:51.410Z,21.27
2017-09-10T07:35:51.140Z,21.18
2017-09-10T07:36:51.890Z,20.93
2017-09-10T07:37:51.596Z,20.78
2017-09-10T07:38:52.024Z,20.57
2017-09-10T07:39:52.112Z,20.58
2017-09-10T07:40:52.835Z,20.53
2017-09-10T07:41:52.543Z,20.58
2017-09-10T07:42:52.908Z,20.64
2017-09-10T07:43:52.633Z,20.54
2017-09-10T07:44:52.976Z,20.44
2017-09-10T07:45:53.004Z,20.37
2017-09-10T07:46:52.712Z,20.37
2017-09-10T07:47:52.500Z,20.3
2017-09-10T07:48:52.904Z,20.3
2017-09-10T07:49:53.656Z,20.4
2017-09-10T07:50:53.689Z,20.35
2017-09-10T07:51:53.794Z,20.38
2017-09-10T07:52:54.161Z,20.35
2017-09-10T07:53:53.862Z,20.54
2017-09-10T07:54:54.294Z,20.51
2017-09-10T07:55:54.332Z,20.58
2017-09-10T07:56:54.050Z,20.56
2017-09-10T07:57:54.149Z,20.76
2017-09-10T07:58:54.494Z,20.88
2017-09-10T07:59:54.525Z,21.06
2017-09-10T08:00:54.308Z,21.23
2017-09-10T08:01:54.662Z,21.16
2017-09-10T08:02:55.071Z,21.49
2017-09-10T08:03:55.054Z,21.7
2017-09-10T08:04:55.080Z,21.92
2017-09-10T08:05:54.791Z,22.07
2017-09-10T08:06:55.159Z,22.26
2017-09-10T08:07:55.192Z,22.48
2017-09-10T08:08:54.898Z,22.89
2017-09-10T08:09:55.303Z,23.38
2017-09-10T08:10:55.097Z,23.77
2017-09-10T08:11:55.132Z,24.36
2017-09-10T08:12:55.547Z,24.71
2017-09-10T08:13:55.269Z,25.09
2017-09-10T08:14:55.614Z,25.2
2017-09-10T08:15:56.016Z,25.52
2017-09-10T08:16:56.060Z,25.96
2017-09-10T08:17:56.092Z,26.12
2017-09-10T08:18:55.817Z,25.88
2017-09-10T08:19:56.226Z,25.38
2017-09-10T08:20:55.934Z,24.94
2017-09-10T08:21:56.047Z,24.48
2017-09-10T08:22:56.723Z,24.17
2017-09-10T08:23:56.119Z,24.15
2017-09-10T08:24:56.860Z,24.39
2017-09-10T08:25:56.909Z,24.67
2017-09-10T08:26:57.008Z,25.3
2017-09-10T08:27:57.091Z,25.66
2017-09-10T08:28:57.188Z,26.01
2017-09-10T08:29:57.295Z,26.26
2017-09-10T08:30:57.725Z,26.38
2017-09-10T08:31:58.159Z,26.53
2017-09-10T08:32:58.281Z,26.34
2017-09-10T08:33:58.769Z,26.42
2017-09-10T08:34:59.195Z,26.38
2017-09-10T08:35:59.991Z,26.72
2017-09-10T08:36:59.663Z,27.31
2017-09-10T08:38:00.022Z,28.51
2017-09-10T08:38:59.752Z,29.38
2017-09-10T08:40:00.470Z,30.1
2017-09-10T08:41:00.512Z,30.85
2017-09-10T08:42:00.556Z,31.56
2017-09-10T08:43:00.595Z,32.56
2017-09-10T08:44:00.297Z,33.61
2017-09-10T08:45:00.724Z,34.43
2017-09-10T08:46:00.766Z,35.12
2017-09-10T08:47:00.166Z,35.65
2017-09-10T08:48:00.518Z,35.86
2017-09-10T08:49:00.967Z,35.77
2017-09-10T08:50:01.379Z,35.69
2017-09-10T08:51:01.806Z,35.6
2017-09-10T08:52:01.530Z,35.79
2017-09-10T08:53:01.570Z,35.86
2017-09-10T08:54:02.077Z,35.67
2017-09-10T08:55:02.120Z,35.39
2017-09-10T08:56:02.218Z,34.71
2017-09-10T08:57:02.521Z,34.15
2017-09-10T08:58:02.252Z,33.89
2017-09-10T08:59:02.659Z,34.05
2017-09-10T09:00:02.695Z,34.55
2017-09-10T09:01:03.096Z,35.05
2017-09-10T09:02:02.495Z,35.67
2017-09-10T09:03:02.866Z,36.21
2017-09-10T09:04:03.230Z,36.77
2017-09-10T09:05:02.622Z,37.22
2017-09-10T09:06:03.510Z,37.39
2017-09-10T09:07:03.622Z,37.68
2017-09-10T09:08:04.006Z,37.75
2017-09-10T09:09:04.767Z,37.27
2017-09-10T09:10:04.934Z,36.71
2017-09-10T09:11:04.596Z,36.74
2017-09-10T09:12:05.010Z,36.92
2017-09-10T09:13:04.725Z,37.27
2017-09-10T09:14:04.448Z,37.64
2017-09-10T09:15:04.957Z,37.74
2017-09-10T09:16:05.720Z,38.03
2017-09-10T09:17:05.763Z,38.06
2017-09-10T09:18:05.475Z,38.22
2017-09-10T09:19:05.309Z,38.21
2017-09-10T09:20:05.489Z,38.27
2017-09-10T09:21:06.116Z,38.4
2017-09-10T09:22:05.511Z,38.65
2017-09-10T09:23:05.556Z,38.81
2017-09-10T09:24:05.962Z,38.96
2017-09-10T09:25:06.187Z,39
2017-09-10T09:26:06.442Z,39.08
2017-09-10T09:27:06.486Z,39.18
2017-09-10T09:28:06.562Z,38.61
2017-09-10T09:29:06.245Z,38.42
2017-09-10T09:30:06.682Z,38.42
2017-09-10T09:31:06.396Z,38.66
2017-09-10T09:32:06.460Z,38.92
2017-09-10T09:33:06.631Z,39.19
2017-09-10T09:34:07.257Z,38.92
2017-09-10T09:35:07.353Z,38.39
2017-09-10T09:36:07.283Z,38.12
2017-09-10T09:37:07.692Z,37.45
2017-09-10T09:38:07.745Z,36.21
2017-09-10T09:39:08.137Z,34.86
2017-09-10T09:40:08.184Z,33.26
2017-09-10T09:41:08.409Z,32.08
2017-09-10T09:42:09.516Z,32.1
2017-09-10T09:43:09.214Z,32.87
2017-09-10T09:44:09.993Z,33.77
2017-09-10T09:45:10.170Z,33.69
2017-09-10T09:46:10.544Z,33.8
2017-09-10T09:47:10.668Z,34.06
2017-09-10T09:48:10.789Z,34.52
2017-09-10T09:49:11.146Z,35.31
2017-09-10T09:50:10.542Z,36.15
2017-09-10T09:51:10.918Z,36.73
2017-09-10T09:52:11.278Z,37.19
2017-09-10T09:53:10.998Z,37.3
2017-09-10T09:54:10.789Z,37.26
2017-09-10T09:55:11.524Z,37.02
2017-09-10T09:56:11.967Z,35.79
2017-09-10T09:57:12.011Z,34.17
2017-09-10T09:58:11.735Z,32.74
2017-09-10T09:59:11.769Z,31.36
2017-09-10T10:00:12.211Z,30.11
2017-09-10T10:01:12.251Z,29.54
2017-09-10T10:02:12.389Z,29.33
2017-09-10T10:03:12.299Z,29.35
2017-09-10T10:04:12.381Z,30.19
2017-09-10T10:05:12.112Z,31.22
2017-09-10T10:06:12.469Z,32.56
2017-09-10T10:07:12.503Z,33.85
2017-09-10T10:08:12.580Z,35.05
2017-09-10T10:09:12.953Z,36.14
2017-09-10T10:10:13.382Z,36.97
2017-09-10T10:11:13.420Z,37.42
2017-09-10T10:12:13.458Z,37.93
2017-09-10T10:13:13.501Z,38.33
2017-09-10T10:14:13.545Z,38.66
2017-09-10T10:15:13.585Z,38.93
2017-09-10T10:16:13.622Z,39.3
2017-09-10T10:17:13.675Z,39.67
2017-09-10T10:18:13.060Z,39.83
2017-09-10T10:19:13.422Z,39.83
2017-09-10T10:20:13.146Z,39.5
2017-09-10T10:21:13.563Z,39.03
2017-09-10T10:22:13.674Z,38.87
2017-09-10T10:23:14.338Z,39.12
2017-09-10T10:24:14.737Z,39.31
2017-09-10T10:25:14.786Z,39.62
2017-09-10T10:26:15.521Z,39.81
2017-09-10T10:27:15.555Z,39.62
2017-09-10T10:28:15.278Z,39.03
2017-09-10T10:29:15.694Z,37.83
2017-09-10T10:30:15.730Z,36.37
2017-09-10T10:31:15.785Z,35.06
2017-09-10T10:32:15.822Z,33.74
2017-09-10T10:33:15.851Z,32.52
2017-09-10T10:34:15.276Z,31.67
2017-09-10T10:35:15.360Z,31.67
2017-09-10T10:36:16.096Z,32.5
2017-09-10T10:37:16.139Z,33.56
2017-09-10T10:38:16.182Z,34.32
2017-09-10T10:39:16.229Z,35.15
2017-09-10T10:40:16.265Z,35.99
2017-09-10T10:41:16.298Z,36.73
2017-09-10T10:42:15.997Z,36.86
2017-09-10T10:43:16.740Z,37.15
2017-09-10T10:44:16.135Z,37.51
2017-09-10T10:45:16.891Z,37.61
2017-09-10T10:46:16.932Z,37.12
2017-09-10T10:47:16.966Z,36.24
2017-09-10T10:48:16.785Z,35.64
2017-09-10T10:49:17.050Z,35.18
2017-09-10T10:50:17.159Z,34.24
2017-09-10T10:51:17.904Z,33.03
2017-09-10T10:52:17.614Z,31.72
2017-09-10T10:53:19.619Z,30.63
2017-09-10T10:54:20.247Z,29.61
2017-09-10T10:55:18.947Z,29.17
2017-09-10T10:56:18.663Z,28.82
2017-09-10T10:57:19.028Z,28.45
2017-09-10T10:58:19.072Z,28.7
2017-09-10T10:59:18.788Z,29.91
2017-09-10T11:00:19.310Z,31.49
2017-09-10T11:01:19.183Z,32.9
2017-09-10T11:02:19.241Z,34.22
2017-09-10T11:03:19.266Z,35.45
2017-09-10T11:04:19.308Z,36.22
2017-09-10T11:05:19.113Z,36.65
2017-09-10T11:06:19.527Z,36.93
2017-09-10T11:07:19.570Z,36.86
2017-09-10T11:08:19.610Z,36.39
2017-09-10T11:09:19.647Z,36.24
2017-09-10T11:10:19.454Z,36.33
2017-09-10T11:11:19.846Z,36.37
2017-09-10T11:12:20.255Z,35.64
2017-09-10T11:13:20.288Z,35.05
2017-09-10T11:14:20.325Z,34.32
2017-09-10T11:15:20.612Z,34.06
2017-09-10T11:16:20.073Z,33.73
2017-09-10T11:17:20.114Z,33.96
2017-09-10T11:18:20.559Z,34.41
2017-09-10T11:19:20.589Z,34.46
2017-09-10T11:20:20.303Z,34.58
2017-09-10T11:21:20.429Z,34.86
2017-09-10T11:22:20.860Z,34.77
2017-09-10T11:23:21.583Z,33.68
2017-09-10T11:24:21.623Z,32.56
2017-09-10T11:25:22.080Z,31.37
2017-09-10T11:26:21.810Z,30.28
2017-09-10T11:27:22.152Z,29.24
2017-09-10T11:28:21.877Z,28.38
2017-09-10T11:29:22.288Z,27.59
2017-09-10T11:30:22.326Z,26.89
2017-09-10T11:31:22.360Z,26.32
2017-09-10T11:32:22.410Z,25.86
2017-09-10T11:33:22.442Z,25.54
2017-09-10T11:34:22.482Z,25.26
2017-09-10T11:35:22.513Z,25
2017-09-10T11:36:22.585Z,25.08
2017-09-10T11:37:23.310Z,25.52
2017-09-10T11:38:23.335Z,25.75
2017-09-10T11:39:23.380Z,25.74
2017-09-10T11:40:23.800Z,26.04
2017-09-10T11:41:23.832Z,26.49
2017-09-10T11:42:23.873Z,27.16
2017-09-10T11:43:23.337Z,27.94
2017-09-10T11:44:24.390Z,28.57
2017-09-10T11:45:24.100Z,29.01
2017-09-10T11:46:23.820Z,29.29
2017-09-10T11:47:24.509Z,29.43
2017-09-10T11:48:24.919Z,29.28
2017-09-10T11:49:24.954Z,28.94
2017-09-10T11:50:24.988Z,28.36
2017-09-10T11:51:25.030Z,27.98
2017-09-10T11:52:25.065Z,27.37
2017-09-10T11:53:24.795Z,27.08
2017-09-10T11:54:25.549Z,26.64
2017-09-10T11:55:25.577Z,26.52
2017-09-10T11:56:25.620Z,26.19
2017-09-10T11:57:25.006Z,25.93
2017-09-10T11:58:25.424Z,25.74
2017-09-10T11:59:26.166Z,25.71
2017-09-10T12:00:26.210Z,25.64
2017-09-10T12:01:25.916Z,25.59
2017-09-10T12:02:26.660Z,25.56
2017-09-10T12:03:26.399Z,25.41
2017-09-10T12:04:27.211Z,25.19
2017-09-10T12:05:27.556Z,24.89
2017-09-10T12:06:26.670Z,24.83
2017-09-10T12:07:27.285Z,24.52
2017-09-10T12:08:27.698Z,24.4
2017-09-10T12:09:27.341Z,24.24
2017-09-10T12:10:27.786Z,24.15
2017-09-10T12:11:27.819Z,24.14
2017-09-10T12:12:27.594Z,24.09
2017-09-10T12:13:27.320Z,24.07
2017-09-10T12:14:27.851Z,23.99
2017-09-10T12:15:28.205Z,23.79
2017-09-10T12:16:28.942Z,23.7
2017-09-10T12:17:27.946Z,23.45
2017-09-10T12:18:28.425Z,23.44
2017-09-10T12:19:28.832Z,23.55
2017-09-10T12:20:28.879Z,23.53
2017-09-10T12:21:28.909Z,23.53
2017-09-10T12:22:29.312Z,23.44
2017-09-10T12:23:29.363Z,23.55
2017-09-10T12:24:29.080Z,23.59
2017-09-10T12:25:29.550Z,23.56
2017-09-10T12:26:29.303Z,23.6
2017-09-10T12:27:29.917Z,23.67
2017-09-10T12:28:29.305Z,23.62
2017-09-10T12:29:29.446Z,23.64
2017-09-10T12:30:30.169Z,23.64
2017-09-10T12:31:30.250Z,23.59
2017-09-10T12:32:30.285Z,23.59
2017-09-10T12:33:30.345Z,23.56
2017-09-10T12:34:31.091Z,23.42
2017-09-10T12:35:30.567Z,23.38
2017-09-10T12:36:30.684Z,23.35
2017-09-10T12:37:31.035Z,23.29
2017-09-10T12:38:31.074Z,23.22
2017-09-10T12:39:31.104Z,23.18
2017-09-10T12:40:30.507Z,23.06
2017-09-10T12:41:31.280Z,22.89
2017-09-10T12:42:31.300Z,22.7
2017-09-10T12:43:31.331Z,22.63
2017-09-10T12:44:31.768Z,22.39
2017-09-10T12:45:31.153Z,22.27
2017-09-10T12:46:31.503Z,22.26
2017-09-10T12:47:31.950Z,22.18
2017-09-10T12:48:31.656Z,22.23
2017-09-10T12:49:31.713Z,22.2
2017-09-10T12:50:32.124Z,22.14
2017-09-10T12:51:32.161Z,21.99
2017-09-10T12:52:32.200Z,21.89
2017-09-10T12:53:32.237Z,21.9
2017-09-10T12:54:31.955Z,21.73
2017-09-10T12:55:32.375Z,21.77
2017-09-10T12:56:32.489Z,21.64
2017-09-10T12:57:32.841Z,21.67